sensor_id;sensor_type;location;lat;lon;timestamp;temperature;humidity
7192;DHT22;3637;51.494;11.958;2024-03-08T00:02:06;1.80;99.90
7192;DHT22;3637;51.494;11.958;2024-03-08T00:05:09;1.80;99.90
7192;DHT22;3637;51.494;11.958;2024-03-08T00:08:11;1.70;99.90
7192;DHT22;3637;51.494;11.958;2024-03-08T00:11:12;1.80;99.90
7192;DHT22;3637;51.494;11.958;2024-03-08T00:14:14;2.00;99.90
7192;DHT22;3637;51.494;11.958;2024-03-08T00:17:16;2.00;99.90
7192;DHT22;3637;51.494;11.958;2024-03-08T00:20:19;1.70;99.90
7192;DHT22;3637;51.494;11.958;2024-03-08T00:23:21;2.00;99.90
7192;DHT22;3637;51.494;11.958;2024-03-08T00:26:23;2.10;99.90
7192;DHT22;3637;51.494;11.958;2024-03-08T00:29:25;1.60;99.90
7192;DHT22;3637;51.494;11.958;2024-03-08T00:32:28;1.50;99.90
7192;DHT22;3637;51.494;11.958;2024-03-08T00:35:31;1.50;99.90
7192;DHT22;3637;51.494;11.958;2024-03-08T00:38:32;1.50;99.90
7192;DHT22;3637;51.494;11.958;2024-03-08T00:41:34;1.50;99.90
7192;DHT22;3637;51.494;11.958;2024-03-08T00:44:36;1.70;99.90
7192;DHT22;3637;51.494;11.958;2024-03-08T00:47:38;1.40;99.90
7192;DHT22;3637;51.494;11.958;2024-03-08T00:50:41;1.40;99.90
7192;DHT22;3637;51.494;11.958;2024-03-08T00:53:45;1.30;99.90
7192;DHT22;3637;51.494;11.958;2024-03-08T00:56:47;1.20;99.90
7192;DHT22;3637;51.494;11.958;2024-03-08T00:59:49;1.30;99.90
7192;DHT22;3637;51.494;11.958;2024-03-08T01:02:51;1.80;99.90
7192;DHT22;3637;51.494;11.958;2024-03-08T01:05:54;1.20;99.90
7192;DHT22;3637;51.494;11.958;2024-03-08T01:08:55;1.30;99.90
7192;DHT22;3637;51.494;11.958;2024-03-08T01:11:57;1.20;99.90
7192;DHT22;3637;51.494;11.958;2024-03-08T01:14:59;1.20;99.90
7192;DHT22;3637;51.494;11.958;2024-03-08T01:18:01;1.30;99.90
7192;DHT22;3637;51.494;11.958;2024-03-08T01:21:04;1.10;99.90
7192;DHT22;3637;51.494;11.958;2024-03-08T01:24:06;1.10;99.90
7192;DHT22;3637;51.494;11.958;2024-03-08T01:27:08;1.10;99.90
7192;DHT22;3637;51.494;11.958;2024-03-08T01:30:10;1.10;99.90
7192;DHT22;3637;51.494;11.958;2024-03-08T01:33:13;1.40;99.90
7192;DHT22;3637;51.494;11.958;2024-03-08T01:36:16;0.90;99.90
7192;DHT22;3637;51.494;11.958;2024-03-08T01:39:19;0.90;99.90
7192;DHT22;3637;51.494;11.958;2024-03-08T01:42:22;0.90;99.90
7192;DHT22;3637;51.494;11.958;2024-03-08T01:45:24;0.90;99.90
7192;DHT22;3637;51.494;11.958;2024-03-08T01:48:26;0.90;99.90
7192;DHT22;3637;51.494;11.958;2024-03-08T01:51:31;0.80;99.90
7192;DHT22;3637;51.494;11.958;2024-03-08T01:54:33;0.90;99.90
7192;DHT22;3637;51.494;11.958;2024-03-08T01:57:35;0.90;99.90
7192;DHT22;3637;51.494;11.958;2024-03-08T02:00:39;0.90;99.90
7192;DHT22;3637;51.494;11.958;2024-03-08T02:03:42;0.90;99.90
7192;DHT22;3637;51.494;11.958;2024-03-08T02:06:46;0.90;99.90
7192;DHT22;3637;51.494;11.958;2024-03-08T02:09:48;0.80;99.90
7192;DHT22;3637;51.494;11.958;2024-03-08T02:12:51;0.80;99.90
7192;DHT22;3637;51.494;11.958;2024-03-08T02:15:54;0.70;99.90
7192;DHT22;3637;51.494;11.958;2024-03-08T02:18:56;1.00;99.90
7192;DHT22;3637;51.494;11.958;2024-03-08T02:21:59;0.80;99.90
7192;DHT22;3637;51.494;11.958;2024-03-08T02:25:05;0.70;99.90
7192;DHT22;3637;51.494;11.958;2024-03-08T02:28:07;0.60;99.90
7192;DHT22;3637;51.494;11.958;2024-03-08T02:31:10;0.80;99.90
7192;DHT22;3637;51.494;11.958;2024-03-08T02:34:12;0.50;99.90
7192;DHT22;3637;51.494;11.958;2024-03-08T02:37:16;0.50;99.90
7192;DHT22;3637;51.494;11.958;2024-03-08T02:40:18;0.50;99.90
7192;DHT22;3637;51.494;11.958;2024-03-08T02:43:21;0.50;99.90
7192;DHT22;3637;51.494;11.958;2024-03-08T02:46:24;0.40;99.90
7192;DHT22;3637;51.494;11.958;2024-03-08T02:49:26;0.40;99.90
7192;DHT22;3637;51.494;11.958;2024-03-08T02:52:29;0.40;99.90
7192;DHT22;3637;51.494;11.958;2024-03-08T02:55:32;0.40;99.90
7192;DHT22;3637;51.494;11.958;2024-03-08T02:58:36;0.40;99.90
7192;DHT22;3637;51.494;11.958;2024-03-08T03:01:37;0.50;99.90
7192;DHT22;3637;51.494;11.958;2024-03-08T03:04:39;0.40;99.90
7192;DHT22;3637;51.494;11.958;2024-03-08T03:07:43;0.40;99.90
7192;DHT22;3637;51.494;11.958;2024-03-08T03:10:44;0.40;99.90
7192;DHT22;3637;51.494;11.958;2024-03-08T03:13:46;0.40;99.90
7192;DHT22;3637;51.494;11.958;2024-03-08T03:16:48;0.40;99.90
7192;DHT22;3637;51.494;11.958;2024-03-08T03:19:50;0.40;99.90
7192;DHT22;3637;51.494;11.958;2024-03-08T03:22:54;0.40;99.90
7192;DHT22;3637;51.494;11.958;2024-03-08T03:25:57;0.30;99.90
7192;DHT22;3637;51.494;11.958;2024-03-08T03:29:00;0.40;99.90
7192;DHT22;3637;51.494;11.958;2024-03-08T03:32:03;0.30;99.90
7192;DHT22;3637;51.494;11.958;2024-03-08T03:35:06;0.30;99.90
7192;DHT22;3637;51.494;11.958;2024-03-08T03:38:09;0.30;99.90
7192;DHT22;3637;51.494;11.958;2024-03-08T03:41:11;0.30;99.90
7192;DHT22;3637;51.494;11.958;2024-03-08T03:44:14;0.30;99.90
7192;DHT22;3637;51.494;11.958;2024-03-08T03:47:16;0.30;99.90
7192;DHT22;3637;51.494;11.958;2024-03-08T03:50:18;0.30;99.90
7192;DHT22;3637;51.494;11.958;2024-03-08T03:53:22;0.30;99.90
7192;DHT22;3637;51.494;11.958;2024-03-08T03:56:25;0.30;99.90
7192;DHT22;3637;51.494;11.958;2024-03-08T03:59:28;0.30;99.90
7192;DHT22;3637;51.494;11.958;2024-03-08T04:02:29;0.60;99.90
7192;DHT22;3637;51.494;11.958;2024-03-08T04:05:31;0.30;99.90
7192;DHT22;3637;51.494;11.958;2024-03-08T04:08:34;0.30;99.90
7192;DHT22;3637;51.494;11.958;2024-03-08T04:11:36;0.30;99.90
7192;DHT22;3637;51.494;11.958;2024-03-08T04:14:39;0.20;99.90
7192;DHT22;3637;51.494;11.958;2024-03-08T04:17:41;0.30;99.90
7192;DHT22;3637;51.494;11.958;2024-03-08T04:20:43;0.30;99.90
7192;DHT22;3637;51.494;11.958;2024-03-08T04:23:47;0.20;99.90
7192;DHT22;3637;51.494;11.958;2024-03-08T04:26:48;0.30;99.90
7192;DHT22;3637;51.494;11.958;2024-03-08T04:29:51;0.30;99.90
7192;DHT22;3637;51.494;11.958;2024-03-08T04:32:53;0.30;99.90
7192;DHT22;3637;51.494;11.958;2024-03-08T04:35:54;0.20;99.90
7192;DHT22;3637;51.494;11.958;2024-03-08T04:38:58;0.20;99.90
7192;DHT22;3637;51.494;11.958;2024-03-08T04:42:02;0.20;99.90
7192;DHT22;3637;51.494;11.958;2024-03-08T04:45:05;0.10;99.90
7192;DHT22;3637;51.494;11.958;2024-03-08T04:48:08;0.20;99.90
7192;DHT22;3637;51.494;11.958;2024-03-08T04:51:12;0.10;99.90
7192;DHT22;3637;51.494;11.958;2024-03-08T04:54:15;0.10;99.90
7192;DHT22;3637;51.494;11.958;2024-03-08T04:57:16;0.10;99.90
7192;DHT22;3637;51.494;11.958;2024-03-08T05:00:19;0.10;99.90
7192;DHT22;3637;51.494;11.958;2024-03-08T05:03:21;0.10;99.90
7192;DHT22;3637;51.494;11.958;2024-03-08T05:06:22;0.10;99.90
7192;DHT22;3637;51.494;11.958;2024-03-08T05:09:25;0.50;99.90
7192;DHT22;3637;51.494;11.958;2024-03-08T05:12:29;0.10;99.90
7192;DHT22;3637;51.494;11.958;2024-03-08T05:15:31;0.00;99.90
7192;DHT22;3637;51.494;11.958;2024-03-08T05:18:35;0.10;99.90
7192;DHT22;3637;51.494;11.958;2024-03-08T05:21:37;0.00;99.90
7192;DHT22;3637;51.494;11.958;2024-03-08T05:24:41;0.00;99.90
7192;DHT22;3637;51.494;11.958;2024-03-08T05:27:42;1.20;99.90
7192;DHT22;3637;51.494;11.958;2024-03-08T05:30:44;0.10;99.90
7192;DHT22;3637;51.494;11.958;2024-03-08T05:33:46;0.10;99.90
7192;DHT22;3637;51.494;11.958;2024-03-08T05:36:48;0.00;99.90
7192;DHT22;3637;51.494;11.958;2024-03-08T05:39:52;0.00;99.90
7192;DHT22;3637;51.494;11.958;2024-03-08T05:42:54;0.00;99.90
7192;DHT22;3637;51.494;11.958;2024-03-08T05:45:56;0.00;99.90
7192;DHT22;3637;51.494;11.958;2024-03-08T05:48:58;0.00;99.90
7192;DHT22;3637;51.494;11.958;2024-03-08T05:52:00;0.30;99.90
7192;DHT22;3637;51.494;11.958;2024-03-08T05:55:03;-0.10;99.90
7192;DHT22;3637;51.494;11.958;2024-03-08T05:58:07;-0.10;99.90
7192;DHT22;3637;51.494;11.958;2024-03-08T06:01:11;-0.10;99.90
7192;DHT22;3637;51.494;11.958;2024-03-08T06:04:13;0.00;99.90
7192;DHT22;3637;51.494;11.958;2024-03-08T06:07:15;0.40;99.90
7192;DHT22;3637;51.494;11.958;2024-03-08T06:10:19;-0.10;99.90
7192;DHT22;3637;51.494;11.958;2024-03-08T06:13:21;-0.30;99.90
7192;DHT22;3637;51.494;11.958;2024-03-08T06:16:23;0.00;99.90
7192;DHT22;3637;51.494;11.958;2024-03-08T06:19:25;0.00;99.90
7192;DHT22;3637;51.494;11.958;2024-03-08T06:22:27;0.00;99.90
7192;DHT22;3637;51.494;11.958;2024-03-08T06:25:32;0.00;99.90
7192;DHT22;3637;51.494;11.958;2024-03-08T06:28:35;0.40;99.90
7192;DHT22;3637;51.494;11.958;2024-03-08T06:31:37;0.10;99.90
7192;DHT22;3637;51.494;11.958;2024-03-08T06:34:39;0.20;99.90
7192;DHT22;3637;51.494;11.958;2024-03-08T06:37:41;0.20;99.90
7192;DHT22;3637;51.494;11.958;2024-03-08T06:40:46;0.30;99.90
7192;DHT22;3637;51.494;11.958;2024-03-08T06:43:48;0.30;99.90
7192;DHT22;3637;51.494;11.958;2024-03-08T06:46:52;0.40;99.90
7192;DHT22;3637;51.494;11.958;2024-03-08T06:49:54;0.50;99.90
7192;DHT22;3637;51.494;11.958;2024-03-08T06:52:55;0.60;99.90
7192;DHT22;3637;51.494;11.958;2024-03-08T06:55:58;1.10;99.90
7192;DHT22;3637;51.494;11.958;2024-03-08T06:59:00;0.70;99.90
7192;DHT22;3637;51.494;11.958;2024-03-08T07:02:03;0.80;99.90
7192;DHT22;3637;51.494;11.958;2024-03-08T07:05:06;0.90;99.90
7192;DHT22;3637;51.494;11.958;2024-03-08T07:08:10;1.00;99.90
7192;DHT22;3637;51.494;11.958;2024-03-08T07:11:14;1.00;99.90
7192;DHT22;3637;51.494;11.958;2024-03-08T07:14:18;1.20;99.90
7192;DHT22;3637;51.494;11.958;2024-03-08T07:17:22;1.20;99.90
7192;DHT22;3637;51.494;11.958;2024-03-08T07:20:25;1.40;99.90
7192;DHT22;3637;51.494;11.958;2024-03-08T07:23:26;1.50;99.90
7192;DHT22;3637;51.494;11.958;2024-03-08T07:26:47;1.50;99.90
7192;DHT22;3637;51.494;11.958;2024-03-08T07:29:50;1.70;99.90
7192;DHT22;3637;51.494;11.958;2024-03-08T07:32:52;2.20;99.90
7192;DHT22;3637;51.494;11.958;2024-03-08T07:35:57;1.90;99.90
7192;DHT22;3637;51.494;11.958;2024-03-08T07:38:59;2.50;99.90
7192;DHT22;3637;51.494;11.958;2024-03-08T07:42:02;2.10;99.90
7192;DHT22;3637;51.494;11.958;2024-03-08T07:45:05;2.10;99.90
7192;DHT22;3637;51.494;11.958;2024-03-08T07:48:08;2.40;99.90
7192;DHT22;3637;51.494;11.958;2024-03-08T07:51:10;2.40;99.90
7192;DHT22;3637;51.494;11.958;2024-03-08T07:54:12;3.00;99.90
7192;DHT22;3637;51.494;11.958;2024-03-08T07:57:15;2.80;99.90
7192;DHT22;3637;51.494;11.958;2024-03-08T08:00:17;2.90;99.90
7192;DHT22;3637;51.494;11.958;2024-03-08T08:03:20;2.90;99.90
7192;DHT22;3637;51.494;11.958;2024-03-08T08:06:22;3.10;99.90
7192;DHT22;3637;51.494;11.958;2024-03-08T08:09:24;3.20;99.90
7192;DHT22;3637;51.494;11.958;2024-03-08T08:12:36;4.10;99.90
7192;DHT22;3637;51.494;11.958;2024-03-08T08:15:38;3.30;99.90
7192;DHT22;3637;51.494;11.958;2024-03-08T08:18:39;3.40;99.90
7192;DHT22;3637;51.494;11.958;2024-03-08T08:21:41;4.00;99.90
7192;DHT22;3637;51.494;11.958;2024-03-08T08:24:43;3.70;99.90
7192;DHT22;3637;51.494;11.958;2024-03-08T08:27:46;3.90;99.90
7192;DHT22;3637;51.494;11.958;2024-03-08T08:30:48;4.20;99.90
7192;DHT22;3637;51.494;11.958;2024-03-08T08:33:50;4.40;99.90
7192;DHT22;3637;51.494;11.958;2024-03-08T08:36:56;4.50;99.90
7192;DHT22;3637;51.494;11.958;2024-03-08T08:39:58;4.50;99.90
7192;DHT22;3637;51.494;11.958;2024-03-08T08:43:07;5.70;99.90
7192;DHT22;3637;51.494;11.958;2024-03-08T08:46:09;4.80;99.90
7192;DHT22;3637;51.494;11.958;2024-03-08T08:49:13;4.90;99.90
7192;DHT22;3637;51.494;11.958;2024-03-08T08:52:19;5.00;99.90
7192;DHT22;3637;51.494;11.958;2024-03-08T08:55:21;5.10;99.90
7192;DHT22;3637;51.494;11.958;2024-03-08T08:58:27;5.10;99.90
7192;DHT22;3637;51.494;11.958;2024-03-08T09:01:28;5.20;99.90
7192;DHT22;3637;51.494;11.958;2024-03-08T09:04:30;5.30;99.90
7192;DHT22;3637;51.494;11.958;2024-03-08T09:07:32;5.50;99.90
7192;DHT22;3637;51.494;11.958;2024-03-08T09:10:34;6.60;99.90
7192;DHT22;3637;51.494;11.958;2024-03-08T09:13:37;5.70;99.90
7192;DHT22;3637;51.494;11.958;2024-03-08T09:16:39;5.50;99.90
7192;DHT22;3637;51.494;11.958;2024-03-08T09:19:41;5.80;99.90
7192;DHT22;3637;51.494;11.958;2024-03-08T09:22:44;6.00;99.90
7192;DHT22;3637;51.494;11.958;2024-03-08T09:25:46;6.20;99.90
7192;DHT22;3637;51.494;11.958;2024-03-08T09:28:49;6.10;99.90
7192;DHT22;3637;51.494;11.958;2024-03-08T09:31:51;6.10;99.90
7192;DHT22;3637;51.494;11.958;2024-03-08T09:34:53;6.10;99.90
7192;DHT22;3637;51.494;11.958;2024-03-08T09:37:56;6.40;99.90
7192;DHT22;3637;51.494;11.958;2024-03-08T09:40:58;6.60;99.90
7192;DHT22;3637;51.494;11.958;2024-03-08T09:44:04;7.50;99.90
7192;DHT22;3637;51.494;11.958;2024-03-08T09:47:06;6.80;99.90
7192;DHT22;3637;51.494;11.958;2024-03-08T09:50:08;6.90;99.90
7192;DHT22;3637;51.494;11.958;2024-03-08T09:53:11;7.00;99.90
7192;DHT22;3637;51.494;11.958;2024-03-08T09:56:13;7.30;99.90
7192;DHT22;3637;51.494;11.958;2024-03-08T09:59:17;7.20;99.90
7192;DHT22;3637;51.494;11.958;2024-03-08T10:02:36;7.30;99.90
7192;DHT22;3637;51.494;11.958;2024-03-08T10:05:38;7.20;99.90
7192;DHT22;3637;51.494;11.958;2024-03-08T10:08:40;7.40;99.90
7192;DHT22;3637;51.494;11.958;2024-03-08T10:11:42;7.40;99.90
7192;DHT22;3637;51.494;11.958;2024-03-08T10:14:45;7.50;99.90
7192;DHT22;3637;51.494;11.958;2024-03-08T10:17:47;8.30;99.90
7192;DHT22;3637;51.494;11.958;2024-03-08T10:21:02;7.60;99.90
7192;DHT22;3637;51.494;11.958;2024-03-08T10:24:05;8.40;99.90
7192;DHT22;3637;51.494;11.958;2024-03-08T10:27:14;8.20;99.90
7192;DHT22;3637;51.494;11.958;2024-03-08T10:30:19;7.90;99.90
7192;DHT22;3637;51.494;11.958;2024-03-08T10:33:22;8.10;99.90
7192;DHT22;3637;51.494;11.958;2024-03-08T10:36:23;8.30;99.90
7192;DHT22;3637;51.494;11.958;2024-03-08T10:39:25;8.30;99.90
7192;DHT22;3637;51.494;11.958;2024-03-08T10:42:31;8.30;99.90
7192;DHT22;3637;51.494;11.958;2024-03-08T10:45:37;8.30;99.90
7192;DHT22;3637;51.494;11.958;2024-03-08T10:48:44;8.30;99.90
7192;DHT22;3637;51.494;11.958;2024-03-08T10:51:46;8.50;99.90
7192;DHT22;3637;51.494;11.958;2024-03-08T10:54:52;8.40;99.90
7192;DHT22;3637;51.494;11.958;2024-03-08T10:57:56;8.60;99.90
7192;DHT22;3637;51.494;11.958;2024-03-08T11:00:59;8.50;99.90
7192;DHT22;3637;51.494;11.958;2024-03-08T11:04:04;8.50;99.90
7192;DHT22;3637;51.494;11.958;2024-03-08T11:07:06;8.60;99.90
7192;DHT22;3637;51.494;11.958;2024-03-08T11:10:19;8.90;99.90
7192;DHT22;3637;51.494;11.958;2024-03-08T11:13:36;8.90;99.90
7192;DHT22;3637;51.494;11.958;2024-03-08T11:16:40;8.90;99.90
7192;DHT22;3637;51.494;11.958;2024-03-08T11:19:46;9.30;99.90
7192;DHT22;3637;51.494;11.958;2024-03-08T11:22:49;9.30;99.90
7192;DHT22;3637;51.494;11.958;2024-03-08T11:25:52;9.40;99.90
7192;DHT22;3637;51.494;11.958;2024-03-08T11:28:54;9.20;99.90
7192;DHT22;3637;51.494;11.958;2024-03-08T11:32:06;9.90;99.90
7192;DHT22;3637;51.494;11.958;2024-03-08T11:35:18;9.30;99.90
7192;DHT22;3637;51.494;11.958;2024-03-08T11:38:20;9.40;99.90
7192;DHT22;3637;51.494;11.958;2024-03-08T11:41:24;9.50;99.90
7192;DHT22;3637;51.494;11.958;2024-03-08T11:44:29;9.50;99.60
7192;DHT22;3637;51.494;11.958;2024-03-08T11:47:34;9.50;99.70
7192;DHT22;3637;51.494;11.958;2024-03-08T11:50:39;9.90;99.90
7192;DHT22;3637;51.494;11.958;2024-03-08T11:53:41;10.00;99.70
7192;DHT22;3637;51.494;11.958;2024-03-08T11:56:43;10.60;99.60
7192;DHT22;3637;51.494;11.958;2024-03-08T11:59:50;9.50;99.20
7192;DHT22;3637;51.494;11.958;2024-03-08T12:03:03;9.50;98.90
7192;DHT22;3637;51.494;11.958;2024-03-08T12:06:08;9.40;98.90
7192;DHT22;3637;51.494;11.958;2024-03-08T12:09:21;9.40;99.30
7192;DHT22;3637;51.494;11.958;2024-03-08T12:12:56;9.80;99.70
7192;DHT22;3637;51.494;11.958;2024-03-08T12:16:23;9.50;99.10
7192;DHT22;3637;51.494;11.958;2024-03-08T12:23:51;9.80;98.80
7192;DHT22;3637;51.494;11.958;2024-03-08T12:27:19;9.50;98.80
7192;DHT22;3637;51.494;11.958;2024-03-08T12:30:22;9.70;98.60
7192;DHT22;3637;51.494;11.958;2024-03-08T12:33:27;9.80;98.40
7192;DHT22;3637;51.494;11.958;2024-03-08T12:36:29;9.90;98.30
7192;DHT22;3637;51.494;11.958;2024-03-08T12:39:32;10.10;98.30
7192;DHT22;3637;51.494;11.958;2024-03-08T12:42:34;10.20;98.00
7192;DHT22;3637;51.494;11.958;2024-03-08T12:45:35;10.30;98.00
7192;DHT22;3637;51.494;11.958;2024-03-08T12:48:37;10.10;97.80
7192;DHT22;3637;51.494;11.958;2024-03-08T12:51:41;10.10;97.80
7192;DHT22;3637;51.494;11.958;2024-03-08T12:54:44;10.60;98.00
7192;DHT22;3637;51.494;11.958;2024-03-08T12:57:48;10.50;98.00
7192;DHT22;3637;51.494;11.958;2024-03-08T13:00:50;10.50;97.50
7192;DHT22;3637;51.494;11.958;2024-03-08T13:03:52;10.40;97.80
7192;DHT22;3637;51.494;11.958;2024-03-08T13:06:53;10.50;97.90
7192;DHT22;3637;51.494;11.958;2024-03-08T13:09:57;10.40;98.20
7192;DHT22;3637;51.494;11.958;2024-03-08T13:13:00;10.30;98.40
7192;DHT22;3637;51.494;11.958;2024-03-08T13:16:04;10.40;98.40
7192;DHT22;3637;51.494;11.958;2024-03-08T13:19:08;10.30;98.60
7192;DHT22;3637;51.494;11.958;2024-03-08T13:22:12;10.20;99.00
7192;DHT22;3637;51.494;11.958;2024-03-08T13:25:18;10.30;98.80
7192;DHT22;3637;51.494;11.958;2024-03-08T13:28:21;10.40;98.90
7192;DHT22;3637;51.494;11.958;2024-03-08T13:31:24;10.40;98.10
7192;DHT22;3637;51.494;11.958;2024-03-08T13:34:25;10.50;98.40
7192;DHT22;3637;51.494;11.958;2024-03-08T13:37:30;10.60;98.60
7192;DHT22;3637;51.494;11.958;2024-03-08T13:40:35;10.30;99.00
7192;DHT22;3637;51.494;11.958;2024-03-08T13:43:37;9.90;99.10
7192;DHT22;3637;51.494;11.958;2024-03-08T13:46:40;10.20;99.60
7192;DHT22;3637;51.494;11.958;2024-03-08T13:49:42;10.20;99.60
7192;DHT22;3637;51.494;11.958;2024-03-08T13:52:44;10.30;99.20
7192;DHT22;3637;51.494;11.958;2024-03-08T13:55:48;10.40;99.00
7192;DHT22;3637;51.494;11.958;2024-03-08T13:58:50;10.40;99.00
7192;DHT22;3637;51.494;11.958;2024-03-08T14:01:52;11.60;99.10
7192;DHT22;3637;51.494;11.958;2024-03-08T14:04:54;10.40;98.70
7192;DHT22;3637;51.494;11.958;2024-03-08T14:07:56;10.30;98.90
7192;DHT22;3637;51.494;11.958;2024-03-08T14:10:59;10.60;99.20
7192;DHT22;3637;51.494;11.958;2024-03-08T14:14:11;10.30;99.10
7192;DHT22;3637;51.494;11.958;2024-03-08T14:17:12;10.30;98.50
7192;DHT22;3637;51.494;11.958;2024-03-08T14:20:17;10.30;99.00
7192;DHT22;3637;51.494;11.958;2024-03-08T14:23:19;10.30;98.70
7192;DHT22;3637;51.494;11.958;2024-03-08T14:26:24;10.30;98.70
7192;DHT22;3637;51.494;11.958;2024-03-08T14:29:26;10.20;98.60
7192;DHT22;3637;51.494;11.958;2024-03-08T14:32:31;10.10;98.80
7192;DHT22;3637;51.494;11.958;2024-03-08T14:35:33;10.20;98.60
7192;DHT22;3637;51.494;11.958;2024-03-08T14:38:35;10.80;98.50
7192;DHT22;3637;51.494;11.958;2024-03-08T14:41:40;10.20;98.20
7192;DHT22;3637;51.494;11.958;2024-03-08T14:44:41;10.30;98.30
7192;DHT22;3637;51.494;11.958;2024-03-08T14:47:49;10.10;98.40
7192;DHT22;3637;51.494;11.958;2024-03-08T14:50:51;10.20;98.40
7192;DHT22;3637;51.494;11.958;2024-03-08T14:53:53;10.50;98.10
7192;DHT22;3637;51.494;11.958;2024-03-08T14:56:57;10.10;97.90
7192;DHT22;3637;51.494;11.958;2024-03-08T14:59:59;10.20;98.20
7192;DHT22;3637;51.494;11.958;2024-03-08T15:03:06;10.30;98.70
7192;DHT22;3637;51.494;11.958;2024-03-08T15:06:08;9.90;98.50
7192;DHT22;3637;51.494;11.958;2024-03-08T15:09:10;9.90;98.70
7192;DHT22;3637;51.494;11.958;2024-03-08T15:12:19;9.90;98.70
7192;DHT22;3637;51.494;11.958;2024-03-08T15:15:21;9.90;98.50
7192;DHT22;3637;51.494;11.958;2024-03-08T15:18:25;9.80;99.00
7192;DHT22;3637;51.494;11.958;2024-03-08T15:21:34;9.90;99.00
7192;DHT22;3637;51.494;11.958;2024-03-08T15:24:37;9.70;98.80
7192;DHT22;3637;51.494;11.958;2024-03-08T15:27:40;9.80;98.80
7192;DHT22;3637;51.494;11.958;2024-03-08T15:30:42;9.80;98.80
7192;DHT22;3637;51.494;11.958;2024-03-08T15:33:47;9.80;98.80
7192;DHT22;3637;51.494;11.958;2024-03-08T15:36:52;9.90;98.80
7192;DHT22;3637;51.494;11.958;2024-03-08T15:39:54;9.80;98.90
7192;DHT22;3637;51.494;11.958;2024-03-08T15:42:58;9.70;99.10
7192;DHT22;3637;51.494;11.958;2024-03-08T15:45:59;9.60;99.20
7192;DHT22;3637;51.494;11.958;2024-03-08T15:49:04;9.50;99.40
7192;DHT22;3637;51.494;11.958;2024-03-08T15:52:07;9.50;99.60
7192;DHT22;3637;51.494;11.958;2024-03-08T15:55:09;10.20;99.70
7192;DHT22;3637;51.494;11.958;2024-03-08T15:58:12;9.40;99.80
7192;DHT22;3637;51.494;11.958;2024-03-08T16:01:14;9.30;99.90
7192;DHT22;3637;51.494;11.958;2024-03-08T16:04:17;9.60;99.90
7192;DHT22;3637;51.494;11.958;2024-03-08T16:07:21;9.20;99.90
7192;DHT22;3637;51.494;11.958;2024-03-08T16:10:22;8.40;99.90
7192;DHT22;3637;51.494;11.958;2024-03-08T16:13:27;9.10;99.90
7192;DHT22;3637;51.494;11.958;2024-03-08T16:16:29;9.10;99.90
7192;DHT22;3637;51.494;11.958;2024-03-08T16:19:32;9.00;99.90
7192;DHT22;3637;51.494;11.958;2024-03-08T16:22:35;9.30;99.90
7192;DHT22;3637;51.494;11.958;2024-03-08T16:25:37;8.90;99.90
7192;DHT22;3637;51.494;11.958;2024-03-08T16:28:40;8.40;99.90
7192;DHT22;3637;51.494;11.958;2024-03-08T16:31:44;8.80;99.90
7192;DHT22;3637;51.494;11.958;2024-03-08T16:34:46;8.70;99.90
7192;DHT22;3637;51.494;11.958;2024-03-08T16:37:48;8.60;99.90
7192;DHT22;3637;51.494;11.958;2024-03-08T16:40:51;8.60;99.90
7192;DHT22;3637;51.494;11.958;2024-03-08T16:43:56;9.00;99.90
7192;DHT22;3637;51.494;11.958;2024-03-08T16:46:59;8.50;99.90
7192;DHT22;3637;51.494;11.958;2024-03-08T16:50:01;8.30;99.90
7192;DHT22;3637;51.494;11.958;2024-03-08T16:53:05;8.20;99.90
7192;DHT22;3637;51.494;11.958;2024-03-08T16:56:07;8.20;99.90
7192;DHT22;3637;51.494;11.958;2024-03-08T16:59:13;8.10;99.90
7192;DHT22;3637;51.494;11.958;2024-03-08T17:02:15;8.00;99.90
7192;DHT22;3637;51.494;11.958;2024-03-08T17:05:17;8.20;99.90
7192;DHT22;3637;51.494;11.958;2024-03-08T17:08:18;7.80;99.90
7192;DHT22;3637;51.494;11.958;2024-03-08T17:11:22;7.70;99.90
7192;DHT22;3637;51.494;11.958;2024-03-08T17:14:25;8.10;99.90
7192;DHT22;3637;51.494;11.958;2024-03-08T17:17:29;7.60;99.90
7192;DHT22;3637;51.494;11.958;2024-03-08T17:20:32;7.60;99.90
7192;DHT22;3637;51.494;11.958;2024-03-08T17:23:36;7.50;99.90
7192;DHT22;3637;51.494;11.958;2024-03-08T17:26:38;7.40;99.90
7192;DHT22;3637;51.494;11.958;2024-03-08T17:29:42;7.30;99.90
7192;DHT22;3637;51.494;11.958;2024-03-08T17:32:43;7.30;99.90
7192;DHT22;3637;51.494;11.958;2024-03-08T17:35:46;7.20;99.90
7192;DHT22;3637;51.494;11.958;2024-03-08T17:38:48;7.20;99.90
7192;DHT22;3637;51.494;11.958;2024-03-08T17:41:50;7.10;99.90
7192;DHT22;3637;51.494;11.958;2024-03-08T17:44:55;7.10;99.90
7192;DHT22;3637;51.494;11.958;2024-03-08T17:48:02;7.00;99.90
7192;DHT22;3637;51.494;11.958;2024-03-08T17:51:04;6.90;99.90
7192;DHT22;3637;51.494;11.958;2024-03-08T17:54:06;6.90;99.90
7192;DHT22;3637;51.494;11.958;2024-03-08T17:57:11;6.80;99.90
7192;DHT22;3637;51.494;11.958;2024-03-08T18:00:17;6.70;99.90
7192;DHT22;3637;51.494;11.958;2024-03-08T18:03:25;6.70;99.90
7192;DHT22;3637;51.494;11.958;2024-03-08T18:06:29;6.70;99.90
7192;DHT22;3637;51.494;11.958;2024-03-08T18:09:30;6.60;99.90
7192;DHT22;3637;51.494;11.958;2024-03-08T18:12:32;6.60;99.90
7192;DHT22;3637;51.494;11.958;2024-03-08T18:15:36;6.60;99.90
7192;DHT22;3637;51.494;11.958;2024-03-08T18:18:39;6.60;99.90
7192;DHT22;3637;51.494;11.958;2024-03-08T18:21:41;6.50;99.90
7192;DHT22;3637;51.494;11.958;2024-03-08T18:24:42;6.50;99.90
7192;DHT22;3637;51.494;11.958;2024-03-08T18:27:46;6.60;99.90
7192;DHT22;3637;51.494;11.958;2024-03-08T18:30:49;6.40;99.90
7192;DHT22;3637;51.494;11.958;2024-03-08T18:33:54;6.40;99.90
7192;DHT22;3637;51.494;11.958;2024-03-08T18:36:55;6.80;99.90
7192;DHT22;3637;51.494;11.958;2024-03-08T18:39:57;6.40;99.90
7192;DHT22;3637;51.494;11.958;2024-03-08T18:42:59;6.50;99.90
7192;DHT22;3637;51.494;11.958;2024-03-08T18:46:03;6.30;99.90
7192;DHT22;3637;51.494;11.958;2024-03-08T18:49:06;6.20;99.90
7192;DHT22;3637;51.494;11.958;2024-03-08T18:52:07;6.20;99.90
7192;DHT22;3637;51.494;11.958;2024-03-08T18:55:09;6.10;99.90
7192;DHT22;3637;51.494;11.958;2024-03-08T18:58:13;6.50;99.90
7192;DHT22;3637;51.494;11.958;2024-03-08T19:01:17;6.10;99.90
7192;DHT22;3637;51.494;11.958;2024-03-08T19:04:25;6.10;99.90
7192;DHT22;3637;51.494;11.958;2024-03-08T19:07:27;6.00;99.90
7192;DHT22;3637;51.494;11.958;2024-03-08T19:10:30;5.90;99.90
7192;DHT22;3637;51.494;11.958;2024-03-08T19:13:32;5.80;99.90
7192;DHT22;3637;51.494;11.958;2024-03-08T19:16:36;5.80;99.90
7192;DHT22;3637;51.494;11.958;2024-03-08T19:19:41;5.80;99.90
7192;DHT22;3637;51.494;11.958;2024-03-08T19:22:43;5.70;99.90
7192;DHT22;3637;51.494;11.958;2024-03-08T19:25:45;5.70;99.90
7192;DHT22;3637;51.494;11.958;2024-03-08T19:28:46;5.60;99.90
7192;DHT22;3637;51.494;11.958;2024-03-08T19:31:50;5.80;99.90
7192;DHT22;3637;51.494;11.958;2024-03-08T19:34:51;5.60;99.90
7192;DHT22;3637;51.494;11.958;2024-03-08T19:37:54;5.60;99.90
7192;DHT22;3637;51.494;11.958;2024-03-08T19:40:56;6.00;99.90
7192;DHT22;3637;51.494;11.958;2024-03-08T19:43:58;5.70;99.90
7192;DHT22;3637;51.494;11.958;2024-03-08T19:47:01;5.50;99.90
7192;DHT22;3637;51.494;11.958;2024-03-08T19:50:06;5.50;99.90
7192;DHT22;3637;51.494;11.958;2024-03-08T19:53:09;5.50;99.90
7192;DHT22;3637;51.494;11.958;2024-03-08T19:56:11;5.50;99.90
7192;DHT22;3637;51.494;11.958;2024-03-08T19:59:13;5.50;99.90